Latest Weather Observations for Inglewood

IDQ60801

Issued at 5:05 pm EST Wednesday 16 April 2014 (issued every 30 minutes, with the page automatically refreshed every 10 minutes)

About weather observations | Map of weather stations | Latest weather observations for QLD | Other Formats
Station Details ID: 041097 Name: INGLEWOOD FOREST Lat: -28.34 Lon: 150.94 Height: 379.0 m
Data from the previous 72 hours. | See also: Recent months at Inglewood
Date/Time
EST
Temp
°C
App
Temp
°C
Dew
Point
Rel
Hum
%
Delta-T
°C
Wind Press
QNH
hPa
Press
MSL
hPa
Rain
since 9 am
mm
Dir
 
Spd
km/h
Gust
km/h
Spd
kts
Gust
kts
16/05:00pm - - - - - S 9 13 5 7 - - 0.0
16/04:30pm - - - - - S 11 19 6 10 - - 0.0
16/04:00pm - - - - - SW 15 24 8 13 - - 0.0
16/03:30pm - - - - - SW 13 22 7 12 - - 0.0
16/03:00pm - - - - - SW 13 22 7 12 - - 0.0
16/02:30pm - - - - - SSW 9 19 5 10 - - 0.0
16/02:00pm - - - - - S 9 17 5 9 - - 0.0
16/01:30pm - - - - - S 7 11 4 6 - - 0.0
16/01:00pm - - - - - SSE 9 13 5 7 - - 0.0
16/12:30pm - - - - - ESE 7 17 4 9 - - 0.0
16/12:00pm - - - - - SW 7 13 4 7 - - 0.0
16/11:30am - - - - - W 7 13 4 7 - - 0.0
16/11:00am - - - - - S 6 9 3 5 - - 0.0
16/10:30am - - - - - SSW 6 11 3 6 - - 0.0
16/10:00am - - - - - NNW 6 13 3 7 - - 0.0
16/09:30am - - - - - ENE 7 11 4 6 - - 0.0
16/09:00am - - - - - E 7 11 4 6 - - 0.0
16/08:30am - - - - - ENE 7 11 4 6 - - 0.0
16/08:00am - - - - - E 11 17 6 9 - - 0.0
16/07:30am - - - - - ENE 11 17 6 9 - - 0.0
16/07:00am - - - - - NE 9 13 5 7 - - 0.0
16/06:30am - - - - - NE 9 13 5 7 - - 0.0
16/06:00am - - - - - ENE 11 15 6 8 - - 0.0
16/05:30am - - - - - ENE 9 13 5 7 - - 0.0
16/05:00am - - - - - ENE 11 15 6 8 - - 0.0
16/04:30am - - - - - E 11 13 6 7 - - 0.0
16/04:00am - - - - - ENE 11 13 6 7 - - 0.0
16/03:30am - - - - - ENE 11 19 6 10 - - 0.0
16/03:00am - - - - - ENE 11 17 6 9 - - 0.0
16/02:30am - - - - - NE 13 17 7 9 - - 0.0
16/02:00am - - - - - NE 11 17 6 9 - - 0.0
16/01:30am - - - - - NE 11 19 6 10 - - 0.0
16/01:00am - - - - - E 13 17 7 9 - - 0.0
16/12:30am - - - - - NE 11 17 6 9 - - 0.0
16/12:00am - - - - - ENE 9 19 5 10 - - 0.0
 
Date/Time
EST
Temp
°C
App
Temp
°C
Dew
Point
Rel
Hum
%
Delta-T
°C
Wind Press
QNH
hPa
Press
MSL
hPa
Rain
since 9 am
mm
Dir
 
Spd
km/h
Gust
km/h
Spd
kts
Gust
kts
15/11:30pm - - - - - NE 9 15 5 8 - - 0.0
15/11:00pm - - - - - ENE 9 13 5 7 - - 0.0
15/10:30pm - - - - - ENE 11 15 6 8 - - 0.0
15/10:00pm - - - - - NE 11 17 6 9 - - 0.0
15/09:30pm - - - - - NE 9 19 5 10 - - 0.0
15/09:00pm - - - - - NNE 9 15 5 8 - - 0.0
15/08:30pm - - - - - W 9 11 5 6 - - 0.0
15/08:00pm - - - - - W 6 7 3 4 - - 0.0
15/07:30pm - - - - - W 4 6 2 3 - - 0.0
15/07:00pm - - - - - WSW 6 7 3 4 - - 0.0
15/06:30pm - - - - - SW 7 9 4 5 - - 0.0
15/06:00pm - - - - - SW 7 9 4 5 - - 0.0
15/05:30pm - - - - - WSW 7 7 4 4 - - 0.0
15/05:00pm - - - - - SW 7 11 4 6 - - 0.0
15/04:30pm - - - - - WSW 11 17 6 9 - - 0.0
15/04:00pm - - - - - S 6 11 3 6 - - 0.0
15/03:30pm - - - - - SW 9 19 5 10 - - 0.0
15/03:00pm - - - - - SW 9 13 5 7 - - 0.0
15/02:30pm - - - - - WSW 9 15 5 8 - - 0.0
15/02:00pm - - - - - SSW 7 19 4 10 - - 0.0
15/01:30pm - - - - - S 6 9 3 5 - - 0.0
15/01:00pm - - - - - SSE 7 13 4 7 - - 0.0
15/12:30pm - - - - - S 9 17 5 9 - - 0.0
15/12:00pm - - - - - S 11 17 6 9 - - 0.0
15/11:30am - - - - - SSE 9 19 5 10 - - 0.0
15/11:00am - - - - - ESE 9 13 5 7 - - 0.0
15/10:30am - - - - - E 9 17 5 9 - - 0.0
15/10:00am - - - - - ESE 9 20 5 11 - - 0.0
15/09:30am - - - - - ESE 7 17 4 9 - - 0.0
15/09:00am - - - - - E 9 17 5 9 - - 0.2
15/08:30am - - - - - E 9 13 5 7 - - 0.2
15/08:00am - - - - - E 9 15 5 8 - - 0.2
15/07:30am - - - - - E 7 9 4 5 - - 0.2
15/07:00am - - - - - E 6 7 3 4 - - 0.2
15/06:30am - - - - - SE 6 7 3 4 - - 0.2
15/06:00am - - - - - ENE 6 7 3 4 - - 0.2
15/05:30am - - - - - ESE 2 9 1 5 - - 0.2
15/05:00am - - - - - ESE 9 13 5 7 - - 0.2
15/04:30am - - - - - ESE 11 15 6 8 - - 0.2
15/04:00am - - - - - ESE 11 13 6 7 - - 0.2
15/03:30am - - - - - ESE 9 13 5 7 - - 0.2
15/03:00am - - - - - E 11 13 6 7 - - 0.2
15/02:30am - - - - - E 17 24 9 13 - - 0.2
15/02:00am - - - - - E 11 13 6 7 - - 0.2
15/01:30am - - - - - E 13 19 7 10 - - 0.2
15/01:00am - - - - - E 13 17 7 9 - - 0.2
15/12:30am - - - - - E 13 17 7 9 - - 0.2
15/12:00am - - - - - E 13 19 7 10 - - 0.2
 
Date/Time
EST
Temp
°C
App
Temp
°C
Dew
Point
Rel
Hum
%
Delta-T
°C
Wind Press
QNH
hPa
Press
MSL
hPa
Rain
since 9 am
mm
Dir
 
Spd
km/h
Gust
km/h
Spd
kts
Gust
kts
14/11:30pm - - - - - E 15 19 8 10 - - 0.2
14/11:00pm - - - - - E 13 19 7 10 - - 0.2
14/10:30pm - - - - - ENE 11 17 6 9 - - 0.2
14/10:00pm - - - - - ENE 13 19 7 10 - - 0.2
14/09:30pm - - - - - E 11 15 6 8 - - 0.0
14/09:00pm - - - - - E 13 17 7 9 - - 0.0
14/08:30pm - - - - - E 13 20 7 11 - - 0.0
14/08:00pm - - - - - E 13 19 7 10 - - 0.0
14/07:30pm - - - - - ENE 13 20 7 11 - - 0.0
14/07:00pm - - - - - ENE 13 20 7 11 - - 0.0
14/06:30pm - - - - - E 15 22 8 12 - - 0.0
14/06:00pm - - - - - E 9 13 5 7 - - 0.0
14/05:30pm - - - - - E 11 15 6 8 - - 0.0
14/05:00pm - - - - - E 9 13 5 7 - - 0.0
14/04:30pm - - - - - E 13 19 7 10 - - 0.0
14/04:00pm - - - - - SE 7 13 4 7 - - 0.0
14/03:30pm - - - - - E 9 17 5 9 - - 0.0
14/03:00pm - - - - - ESE 11 20 6 11 - - 0.0
14/02:30pm - - - - - ESE 13 32 7 17 - - 0.0
14/02:00pm - - - - - ESE 11 19 6 10 - - 0.0
14/01:30pm - - - - - ESE 9 17 5 9 - - 0.0
14/01:00pm - - - - - ESE 11 20 6 11 - - 0.0
14/12:30pm - - - - - E 9 20 5 11 - - 0.0
14/12:00pm - - - - - ESE 13 22 7 12 - - 0.0
14/11:30am - - - - - ESE 17 28 9 15 - - 0.0
14/11:00am - - - - - E 19 32 10 17 - - 0.0
14/10:30am - - - - - E 19 30 10 16 - - 0.0
14/10:00am - - - - - E 19 30 10 16 - - 0.0
14/09:30am - - - - - ESE 19 28 10 15 - - 0.0
14/09:00am - - - - - E 17 26 9 14 - - 0.0
14/08:30am - - - - - E 17 30 9 16 - - 0.0
14/08:00am - - - - - E 13 22 7 12 - - 0.0
14/07:30am - - - - - ESE 15 22 8 12 - - 0.0
14/07:00am - - - - - E 13 17 7 9 - - 0.0
14/06:30am - - - - - E 13 15 7 8 - - 0.0
14/06:00am - - - - - E 13 17 7 9 - - 0.0
14/05:30am - - - - - ESE 17 22 9 12 - - 0.0
14/05:00am - - - - - ESE 17 20 9 11 - - 0.0
14/04:30am - - - - - ESE 15 19 8 10 - - 0.0
14/04:00am - - - - - ESE 15 19 8 10 - - 0.0
14/03:30am - - - - - ESE 13 17 7 9 - - 0.0
14/03:00am - - - - - ESE 13 17 7 9 - - 0.0
14/02:30am - - - - - E 11 15 6 8 - - 0.0
14/02:00am - - - - - E 11 15 6 8 - - 0.0
14/01:30am - - - - - E 9 13 5 7 - - 0.0
14/01:00am - - - - - E 11 17 6 9 - - 0.0
14/12:30am - - - - - E 11 17 6 9 - - 0.0
14/12:00am - - - - - E 13 19 7 10 - - 0.0
 
Date/Time
EST
Temp
°C
App
Temp
°C
Dew
Point
Rel
Hum
%
Delta-T
°C
Wind Press
QNH
hPa
Press
MSL
hPa
Rain
since 9 am
mm
Dir
 
Spd
km/h
Gust
km/h
Spd
kts
Gust
kts
13/11:30pm - - - - - E 13 19 7 10 - - 0.0
13/11:00pm - - - - - E 11 15 6 8 - - 0.0
13/10:30pm - - - - - ENE 9 17 5 9 - - 0.0
13/10:00pm - - - - - ENE 9 13 5 7 - - 0.0
13/09:30pm - - - - - NE 9 15 5 8 - - 0.0
13/09:00pm - - - - - NE 9 13 5 7 - - 0.0
13/08:30pm - - - - - NE 9 17 5 9 - - 0.0
13/08:00pm - - - - - NE 11 15 6 8 - - 0.0
13/07:30pm - - - - - NNE 11 20 6 11 - - 0.0
13/07:00pm - - - - - NNE 9 15 5 8 - - 0.0
13/06:30pm - - - - - NNE 9 15 5 8 - - 0.0
13/06:00pm - - - - - NNE 13 20 7 11 - - 0.0
13/05:30pm - - - - - NNE 11 19 6 10 - - 0.0

Other Formats:

Comma delimited format used in spreadsheet applications
http://www.bom.gov.au/fwo/IDQ60801/IDQ60801.95573.axf

JavaScript Object Notation format (JSON) in row-major order
http://www.bom.gov.au/fwo/IDQ60801/IDQ60801.95573.json